createdAt,value
2023-02-07T00:00:31.991Z,6.54
2023-02-07T00:03:03.975Z,6.54
2023-02-07T00:05:37.177Z,6.47
2023-02-07T00:08:09.409Z,6.40
2023-02-07T00:10:41.366Z,6.28
2023-02-07T00:13:13.314Z,6.36
2023-02-07T00:15:45.379Z,6.38
2023-02-07T00:18:17.300Z,6.28
2023-02-07T00:21:10.303Z,6.38
2023-02-07T00:23:43.055Z,6.26
2023-02-07T00:26:17.288Z,6.39
2023-02-07T00:28:52.814Z,6.37
2023-02-07T00:31:30.199Z,6.35
2023-02-07T00:34:05.172Z,6.36
2023-02-07T00:36:38.590Z,6.36
2023-02-07T00:39:16.431Z,6.34
2023-02-07T00:41:48.670Z,6.34
2023-02-07T00:44:20.613Z,6.34
2023-02-07T00:46:52.587Z,6.23
2023-02-07T00:49:24.741Z,6.27
2023-02-07T00:51:56.684Z,6.31
2023-02-07T00:54:28.690Z,6.32
2023-02-07T00:57:00.676Z,6.31
2023-02-07T00:59:32.634Z,6.30
2023-02-07T01:02:04.569Z,6.32
2023-02-07T01:04:36.709Z,6.23
2023-02-07T01:07:09.198Z,6.32
2023-02-07T01:09:41.190Z,6.33
2023-02-07T01:12:13.126Z,6.33
2023-02-07T01:14:45.219Z,6.28
2023-02-07T01:17:17.228Z,6.13
2023-02-07T01:19:49.177Z,6.33
2023-02-07T01:22:21.165Z,6.34
2023-02-07T01:24:55.085Z,6.31
2023-02-07T01:27:27.042Z,6.27
2023-02-07T01:29:59.587Z,6.23
2023-02-07T01:32:33.764Z,6.32
2023-02-07T01:35:06.323Z,6.33
2023-02-07T01:37:38.339Z,6.33
2023-02-07T01:40:12.690Z,6.24
2023-02-07T01:42:44.708Z,6.29
2023-02-07T01:45:39.449Z,6.26
2023-02-07T01:48:17.261Z,6.21
2023-02-07T01:50:53.229Z,6.25
2023-02-07T01:53:28.314Z,6.23
2023-02-07T01:56:07.016Z,6.21
2023-02-07T01:58:39.881Z,6.19
2023-02-07T02:01:23.341Z,6.11
2023-02-07T02:03:56.796Z,6.08
2023-02-07T02:06:31.921Z,6.07
2023-02-07T02:09:12.368Z,5.92
2023-02-07T02:12:28.308Z,5.97
2023-02-07T02:15:37.441Z,5.90
2023-02-07T02:18:31.647Z,5.86
2023-02-07T02:21:26.881Z,5.87
2023-02-07T02:24:25.882Z,5.84
2023-02-07T02:27:37.677Z,5.83
2023-02-07T02:30:36.861Z,5.83
2023-02-07T02:33:43.928Z,5.78
2023-02-07T02:36:52.436Z,5.80
2023-02-07T02:39:48.704Z,5.78
2023-02-07T02:42:46.546Z,5.62
2023-02-07T02:45:33.561Z,5.75
2023-02-07T02:48:10.375Z,5.75
2023-02-07T02:50:48.282Z,5.73
2023-02-07T02:53:20.325Z,5.74
2023-02-07T02:56:21.245Z,5.72
2023-02-07T02:59:56.853Z,5.65
2023-02-07T03:03:05.619Z,5.68
2023-02-07T03:05:53.726Z,5.70
2023-02-07T03:08:59.743Z,5.66
2023-02-07T03:11:44.709Z,5.59
2023-02-07T03:14:36.930Z,5.62
2023-02-07T03:17:16.954Z,5.61
2023-02-07T03:20:15.484Z,5.56
2023-02-07T03:22:51.044Z,5.51
2023-02-07T03:25:25.298Z,5.47
2023-02-07T03:27:57.512Z,5.51
2023-02-07T03:30:34.366Z,5.49
2023-02-07T03:33:11.993Z,5.43
2023-02-07T03:36:02.848Z,5.40
2023-02-07T03:38:36.259Z,5.36
2023-02-07T03:41:20.957Z,5.27
2023-02-07T03:43:55.599Z,5.28
2023-02-07T03:46:34.447Z,5.22
2023-02-07T03:49:11.584Z,5.21
2023-02-07T03:51:45.107Z,5.14
2023-02-07T03:54:17.086Z,5.17
2023-02-07T03:56:49.028Z,5.14
2023-02-07T03:59:20.978Z,5.15
2023-02-07T04:01:53.026Z,5.17
2023-02-07T04:04:25.013Z,5.15
2023-02-07T04:06:57.117Z,5.08
2023-02-07T04:09:29.229Z,5.12
2023-02-07T04:12:01.311Z,5.07
2023-02-07T04:14:33.305Z,5.02
2023-02-07T04:17:05.211Z,5.05
2023-02-07T04:19:37.201Z,5.02
2023-02-07T04:22:11.055Z,4.96
2023-02-07T04:24:43.035Z,4.91
2023-02-07T04:27:15.049Z,5.01
2023-02-07T04:29:47.011Z,5.03
2023-02-07T04:32:18.998Z,4.97
2023-02-07T04:34:50.976Z,4.95
2023-02-07T04:37:22.965Z,4.95
2023-02-07T04:39:54.898Z,4.95
2023-02-07T04:42:26.852Z,4.92
2023-02-07T04:44:58.937Z,4.97
2023-02-07T04:47:31.439Z,4.99
2023-02-07T04:50:03.600Z,5.00
2023-02-07T04:52:35.536Z,5.02
2023-02-07T04:55:09.506Z,5.04
2023-02-07T04:57:41.466Z,5.01
2023-02-07T05:00:14.113Z,5.02
2023-02-07T05:02:46.097Z,5.03
2023-02-07T05:05:18.197Z,5.02
2023-02-07T05:07:50.150Z,5.04
2023-02-07T05:10:22.095Z,5.05
2023-02-07T05:12:54.042Z,4.97
2023-02-07T05:15:26.001Z,4.92
2023-02-07T05:17:58.345Z,4.93
2023-02-07T05:20:30.352Z,4.94
2023-02-07T05:23:02.446Z,4.90
2023-02-07T05:25:34.386Z,4.87
2023-02-07T05:28:06.359Z,4.85
2023-02-07T05:30:38.409Z,4.79
2023-02-07T05:33:11.740Z,4.82
2023-02-07T05:35:45.786Z,4.80
2023-02-07T05:38:20.178Z,4.76
2023-02-07T05:40:52.129Z,4.76
2023-02-07T05:43:24.168Z,4.74
2023-02-07T05:45:56.127Z,4.74
2023-02-07T05:48:28.051Z,4.67
2023-02-07T05:51:00.137Z,4.74
2023-02-07T05:53:32.268Z,4.76
2023-02-07T05:56:04.497Z,4.78
2023-02-07T05:58:36.524Z,4.80
2023-02-07T06:01:08.490Z,4.80
2023-02-07T06:03:40.582Z,4.76
2023-02-07T06:06:12.566Z,4.71
2023-02-07T06:08:44.491Z,4.69
2023-02-07T06:11:16.378Z,4.58
2023-02-07T06:13:49.319Z,4.57
2023-02-07T06:16:21.312Z,4.56
2023-02-07T06:18:53.326Z,4.50
2023-02-07T06:21:31.977Z,4.56
2023-02-07T06:24:09.686Z,4.58
2023-02-07T06:26:41.723Z,4.33
2023-02-07T06:29:14.668Z,4.65
2023-02-07T06:31:46.777Z,4.63
2023-02-07T06:34:18.741Z,4.59
2023-02-07T06:36:50.721Z,4.57
2023-02-07T06:39:22.806Z,4.60
2023-02-07T06:41:54.769Z,4.56
2023-02-07T06:44:26.721Z,4.55
2023-02-07T06:46:58.714Z,4.56
2023-02-07T06:49:30.719Z,4.56
2023-02-07T06:52:02.693Z,4.45
2023-02-07T06:54:34.623Z,4.51
2023-02-07T06:57:06.709Z,4.49
2023-02-07T06:59:38.678Z,4.50
2023-02-07T07:02:13.190Z,4.51
2023-02-07T07:04:45.377Z,4.52
2023-02-07T07:07:17.342Z,4.44
2023-02-07T07:09:49.500Z,4.47
2023-02-07T07:12:21.833Z,4.47
2023-02-07T07:14:53.768Z,4.45
2023-02-07T07:17:25.814Z,4.46
2023-02-07T07:19:58.842Z,4.43
2023-02-07T07:22:30.933Z,4.29
2023-02-07T07:25:04.404Z,4.41
2023-02-07T07:27:36.578Z,4.46
2023-02-07T07:30:10.769Z,4.49
2023-02-07T07:32:42.803Z,4.47
2023-02-07T07:35:14.759Z,4.49
2023-02-07T07:37:46.879Z,4.51
2023-02-07T07:40:18.887Z,4.47
2023-02-07T07:42:50.874Z,4.44
2023-02-07T07:45:22.838Z,4.40
2023-02-07T07:47:54.863Z,4.34
2023-02-07T07:50:26.825Z,4.31
2023-02-07T07:52:58.740Z,4.30
2023-02-07T07:55:30.704Z,4.27
2023-02-07T07:58:02.681Z,4.24
2023-02-07T08:00:34.708Z,4.25
2023-02-07T08:03:06.757Z,4.25
2023-02-07T08:05:39.112Z,4.31
2023-02-07T08:08:11.998Z,4.34
2023-02-07T08:10:44.042Z,4.32
2023-02-07T08:13:17.115Z,4.32
2023-02-07T08:15:49.150Z,4.43
2023-02-07T08:18:21.117Z,4.32
2023-02-07T08:20:53.194Z,4.31
2023-02-07T08:23:25.121Z,4.27
2023-02-07T08:25:57.128Z,4.29
2023-02-07T08:28:30.372Z,4.37
2023-02-07T08:31:05.351Z,4.40
2023-02-07T08:33:37.465Z,4.49
2023-02-07T08:36:11.157Z,4.54
2023-02-07T08:38:43.142Z,4.66
2023-02-07T08:41:15.046Z,4.70
2023-02-07T08:43:47.096Z,4.78
2023-02-07T08:46:19.123Z,4.84
2023-02-07T08:48:51.254Z,5.02
2023-02-07T08:51:23.307Z,5.12
2023-02-07T08:53:55.270Z,5.16
2023-02-07T08:56:27.304Z,5.34
2023-02-07T08:58:59.348Z,5.42
2023-02-07T09:01:31.308Z,5.55
2023-02-07T09:04:03.566Z,5.72
2023-02-07T09:06:35.496Z,5.77
2023-02-07T09:09:08.201Z,5.83
2023-02-07T09:11:40.335Z,5.97
2023-02-07T09:14:12.421Z,6.12
2023-02-07T09:16:44.425Z,6.27
2023-02-07T09:19:16.433Z,6.36
2023-02-07T09:21:48.449Z,6.43
2023-02-07T09:24:21.118Z,6.42
2023-02-07T09:26:53.219Z,6.48
2023-02-07T09:29:25.174Z,6.53
2023-02-07T09:31:57.519Z,6.58
2023-02-07T09:34:29.736Z,6.73
2023-02-07T09:37:01.926Z,6.87
2023-02-07T09:39:38.251Z,6.95
2023-02-07T09:42:30.654Z,7.12
2023-02-07T09:45:22.936Z,7.14
2023-02-07T09:48:06.442Z,7.21
2023-02-07T09:50:51.049Z,7.29
2023-02-07T09:53:56.160Z,7.38
2023-02-07T09:56:31.409Z,7.42
2023-02-07T09:59:31.394Z,7.68
2023-02-07T10:02:17.433Z,7.87
2023-02-07T10:04:54.626Z,8.12
2023-02-07T10:07:26.616Z,8.27
2023-02-07T10:09:58.739Z,8.42
2023-02-07T10:12:47.239Z,8.34
2023-02-07T10:15:25.062Z,8.68
2023-02-07T10:18:08.193Z,8.85
2023-02-07T10:21:00.618Z,9.09
2023-02-07T10:23:56.720Z,9.20
2023-02-07T10:26:48.232Z,9.26
2023-02-07T10:30:09.585Z,9.24
2023-02-07T10:32:43.554Z,9.23
2023-02-07T10:35:34.610Z,9.30
2023-02-07T10:38:42.835Z,9.36
2023-02-07T10:41:39.901Z,9.57
2023-02-07T10:44:20.216Z,9.68
2023-02-07T10:47:03.818Z,10.03
2023-02-07T10:49:38.014Z,10.21
2023-02-07T10:52:28.718Z,10.30
2023-02-07T10:55:05.535Z,10.42
2023-02-07T10:57:38.878Z,10.52
2023-02-07T11:00:31.179Z,10.62
2023-02-07T11:03:20.652Z,10.57
2023-02-07T11:05:58.712Z,10.72
2023-02-07T11:08:33.661Z,10.85
2023-02-07T11:11:33.037Z,10.98
2023-02-07T11:14:07.984Z,11.22
2023-02-07T11:16:45.619Z,11.37
2023-02-07T11:19:24.510Z,11.46
2023-02-07T11:22:17.299Z,11.54
2023-02-07T11:24:59.710Z,11.54
2023-02-07T11:27:40.651Z,11.69
2023-02-07T11:30:20.596Z,11.93
2023-02-07T11:33:04.999Z,12.13
2023-02-07T11:35:39.228Z,12.28
2023-02-07T11:38:15.572Z,12.16
2023-02-07T11:40:48.774Z,12.10
2023-02-07T11:43:23.071Z,12.13
2023-02-07T11:46:10.877Z,12.27
2023-02-07T11:48:48.581Z,12.44
2023-02-07T11:51:20.671Z,12.38
2023-02-07T11:54:01.428Z,12.48
2023-02-07T11:56:48.464Z,12.39
2023-02-07T11:59:24.945Z,12.70
2023-02-07T12:02:15.193Z,12.92
2023-02-07T12:04:47.477Z,13.09
2023-02-07T12:07:30.133Z,13.10
2023-02-07T12:10:33.527Z,13.18
2023-02-07T12:13:21.985Z,13.33
2023-02-07T12:16:11.039Z,13.36
2023-02-07T12:19:15.002Z,13.30
2023-02-07T12:21:52.530Z,13.27
2023-02-07T12:24:35.742Z,13.24
2023-02-07T12:27:18.608Z,13.16
2023-02-07T12:30:32.102Z,13.04
2023-02-07T12:33:41.460Z,13.05
2023-02-07T12:36:41.979Z,13.00
2023-02-07T12:39:24.146Z,12.98
2023-02-07T12:42:31.338Z,12.95
2023-02-07T12:45:05.680Z,13.10
2023-02-07T12:48:17.438Z,13.13
2023-02-07T12:51:22.699Z,13.12
2023-02-07T12:54:22.849Z,13.00
2023-02-07T12:57:26.378Z,13.27
2023-02-07T13:00:20.692Z,13.49
2023-02-07T13:03:26.515Z,13.93
2023-02-07T13:06:19.278Z,13.97
2023-02-07T13:09:32.313Z,13.93
2023-02-07T13:12:43.500Z,14.18
2023-02-07T13:15:52.354Z,14.52
2023-02-07T13:18:57.314Z,14.88
2023-02-07T13:21:43.459Z,15.26
2023-02-07T13:24:21.928Z,15.42
2023-02-07T13:27:04.157Z,15.31
2023-02-07T13:29:37.574Z,15.38
2023-02-07T13:32:20.591Z,15.57
2023-02-07T13:35:23.822Z,15.59
2023-02-07T13:38:07.281Z,15.70
2023-02-07T13:40:52.645Z,15.67
2023-02-07T13:44:09.923Z,15.47
2023-02-07T13:47:16.920Z,15.68
2023-02-07T13:49:53.830Z,15.92
2023-02-07T13:52:45.844Z,16.11
2023-02-07T13:55:33.147Z,16.25
2023-02-07T13:58:53.796Z,16.38
2023-02-07T14:01:32.695Z,16.59
2023-02-07T14:04:13.021Z,16.62
2023-02-07T14:07:05.472Z,16.56
2023-02-07T14:09:48.014Z,16.98
2023-02-07T14:12:28.808Z,17.20
2023-02-07T14:15:30.588Z,17.32
2023-02-07T14:18:26.416Z,17.44
2023-02-07T14:21:22.805Z,17.32
2023-02-07T14:24:16.860Z,17.49
2023-02-07T14:26:59.510Z,17.54
2023-02-07T14:29:31.398Z,17.73
2023-02-07T14:32:29.427Z,17.82
2023-02-07T14:35:18.976Z,17.94
2023-02-07T14:38:00.460Z,18.03
2023-02-07T14:41:08.732Z,18.03
2023-02-07T14:44:08.654Z,18.19
2023-02-07T14:46:51.306Z,18.49
2023-02-07T14:49:41.562Z,18.42
2023-02-07T14:52:27.288Z,18.53
2023-02-07T14:55:04.715Z,18.63
2023-02-07T14:58:01.306Z,18.53
2023-02-07T15:00:50.067Z,18.64
2023-02-07T15:03:22.331Z,18.71
2023-02-07T15:06:00.648Z,18.29
2023-02-07T15:08:34.963Z,17.39
2023-02-07T15:11:13.707Z,16.52
2023-02-07T15:13:49.791Z,16.00
2023-02-07T15:16:23.904Z,16.04
2023-02-07T15:19:17.675Z,16.44
2023-02-07T15:21:50.093Z,17.13
2023-02-07T15:24:37.073Z,17.69
2023-02-07T15:27:29.904Z,18.06
2023-02-07T15:30:08.428Z,18.47
2023-02-07T15:32:47.929Z,18.76
2023-02-07T15:35:27.719Z,19.04
2023-02-07T15:38:26.788Z,19.14
2023-02-07T15:40:59.245Z,19.29
2023-02-07T15:43:34.665Z,19.19
2023-02-07T15:46:12.360Z,18.32
2023-02-07T15:48:52.009Z,17.20
2023-02-07T15:51:30.376Z,16.38
2023-02-07T15:54:02.424Z,15.65
2023-02-07T15:56:34.694Z,15.11
2023-02-07T15:59:16.830Z,14.67
2023-02-07T16:01:56.637Z,14.16
2023-02-07T16:04:32.409Z,13.77
2023-02-07T16:07:11.980Z,13.42
2023-02-07T16:09:47.477Z,13.10
2023-02-07T16:12:44.331Z,12.78
2023-02-07T16:15:38.892Z,12.47
2023-02-07T16:18:48.775Z,12.38
2023-02-07T16:21:28.395Z,12.32
2023-02-07T16:24:20.061Z,12.17
2023-02-07T16:26:52.174Z,12.08
2023-02-07T16:29:26.617Z,11.92
2023-02-07T16:31:58.756Z,11.84
2023-02-07T16:34:30.724Z,11.79
2023-02-07T16:37:02.676Z,11.73
2023-02-07T16:39:34.642Z,11.67
2023-02-07T16:42:14.214Z,11.35
2023-02-07T16:44:47.380Z,11.52
2023-02-07T16:47:19.627Z,11.41
2023-02-07T16:49:51.657Z,11.35
2023-02-07T16:52:23.594Z,11.28
2023-02-07T16:54:55.501Z,11.18
2023-02-07T16:57:27.537Z,11.09
2023-02-07T17:00:00.647Z,11.02
2023-02-07T17:02:32.887Z,10.95
2023-02-07T17:05:05.195Z,10.87
2023-02-07T17:07:37.503Z,11.18
2023-02-07T17:10:31.958Z,10.71
2023-02-07T17:13:03.875Z,10.78
2023-02-07T17:15:36.403Z,10.60
2023-02-07T17:18:10.828Z,10.53
2023-02-07T17:20:42.830Z,10.49
2023-02-07T17:23:17.707Z,10.46
2023-02-07T17:25:49.689Z,10.44
2023-02-07T17:28:21.846Z,10.40
2023-02-07T17:30:54.701Z,10.35
2023-02-07T17:33:26.704Z,10.26
2023-02-07T17:35:58.618Z,10.24
2023-02-07T17:38:30.683Z,10.12
2023-02-07T17:41:02.584Z,10.16
2023-02-07T17:43:34.543Z,10.10
2023-02-07T17:46:19.546Z,10.02
2023-02-07T17:48:52.577Z,9.97
2023-02-07T17:51:27.729Z,9.81
2023-02-07T17:53:59.742Z,9.89
2023-02-07T17:56:33.307Z,9.80
2023-02-07T17:59:13.819Z,9.82
2023-02-07T18:01:45.730Z,9.74
2023-02-07T18:04:17.779Z,9.73
2023-02-07T18:06:49.734Z,9.71
2023-02-07T18:09:22.050Z,9.70
2023-02-07T18:11:54.170Z,9.68
2023-02-07T18:14:26.090Z,9.62
2023-02-07T18:16:58.057Z,9.60
2023-02-07T18:19:32.594Z,9.57
2023-02-07T18:22:04.930Z,9.54
2023-02-07T18:24:38.902Z,9.49
2023-02-07T18:27:12.778Z,9.44
2023-02-07T18:29:45.988Z,9.28
2023-02-07T18:32:17.937Z,9.34
2023-02-07T18:34:49.925Z,9.30
2023-02-07T18:37:22.537Z,9.26
2023-02-07T18:39:54.478Z,9.24
2023-02-07T18:42:27.740Z,9.20
2023-02-07T18:44:59.869Z,9.16
2023-02-07T18:47:32.558Z,9.06
2023-02-07T18:50:05.317Z,8.87
2023-02-07T18:52:37.342Z,8.99
2023-02-07T18:55:09.654Z,8.93
2023-02-07T18:57:41.594Z,8.89
2023-02-07T19:00:14.542Z,8.84
2023-02-07T19:02:48.280Z,8.80
2023-02-07T19:05:20.670Z,8.70
2023-02-07T19:07:55.658Z,8.55
2023-02-07T19:10:27.661Z,8.60
2023-02-07T19:12:59.560Z,8.53
2023-02-07T19:15:31.530Z,8.47
2023-02-07T19:18:05.399Z,8.42
2023-02-07T19:20:37.925Z,8.34
2023-02-07T19:23:10.347Z,8.32
2023-02-07T19:25:49.328Z,8.22
2023-02-07T19:28:21.439Z,8.22
2023-02-07T19:30:53.572Z,8.18
2023-02-07T19:33:25.654Z,8.13
2023-02-07T19:36:02.983Z,8.08
2023-02-07T19:38:35.082Z,8.02
2023-02-07T19:41:08.611Z,8.00
2023-02-07T19:43:41.834Z,7.92
2023-02-07T19:46:13.949Z,7.87
2023-02-07T19:48:47.327Z,7.86
2023-02-07T19:51:27.455Z,7.78
2023-02-07T19:54:00.753Z,7.78
2023-02-07T19:56:33.848Z,7.75
2023-02-07T19:59:07.379Z,7.64
2023-02-07T20:01:39.434Z,7.61
2023-02-07T20:04:11.493Z,7.60
2023-02-07T20:06:43.522Z,7.58
2023-02-07T20:09:15.441Z,7.54
2023-02-07T20:11:47.497Z,7.51
2023-02-07T20:14:19.516Z,7.42
2023-02-07T20:16:51.656Z,7.35
2023-02-07T20:19:23.613Z,7.42
2023-02-07T20:21:55.553Z,7.39
2023-02-07T20:24:27.842Z,7.35
2023-02-07T20:26:59.814Z,7.31
2023-02-07T20:29:32.647Z,7.27
2023-02-07T20:32:04.710Z,7.22
2023-02-07T20:34:40.721Z,7.22
2023-02-07T20:37:12.770Z,7.16
2023-02-07T20:39:44.765Z,7.13
2023-02-07T20:42:16.732Z,7.09
2023-02-07T20:44:48.727Z,7.05
2023-02-07T20:47:20.653Z,7.02
2023-02-07T20:49:52.728Z,6.99
2023-02-07T20:52:25.180Z,6.97
2023-02-07T20:54:57.114Z,6.86
2023-02-07T20:57:29.140Z,6.90
2023-02-07T21:00:01.058Z,6.90
2023-02-07T21:02:33.034Z,6.86
2023-02-07T21:05:05.418Z,6.80
2023-02-07T21:07:37.397Z,6.79
2023-02-07T21:10:09.614Z,6.78
2023-02-07T21:12:41.559Z,6.73
2023-02-07T21:15:13.499Z,6.71
2023-02-07T21:17:45.720Z,6.70
2023-02-07T21:20:17.723Z,6.68
2023-02-07T21:22:49.669Z,6.65
2023-02-07T21:25:21.821Z,6.60
2023-02-07T21:27:53.841Z,6.55
2023-02-07T21:30:25.827Z,6.49
2023-02-07T21:32:57.793Z,6.48
2023-02-07T21:35:29.785Z,6.45
2023-02-07T21:38:02.117Z,6.42
2023-02-07T21:40:34.652Z,6.36
2023-02-07T21:43:06.577Z,6.32
2023-02-07T21:45:38.573Z,6.27
2023-02-07T21:48:10.531Z,6.26
2023-02-07T21:50:42.602Z,6.25
2023-02-07T21:53:14.586Z,6.22
2023-02-07T21:55:46.740Z,6.22
2023-02-07T21:58:18.672Z,6.16
2023-02-07T22:00:50.640Z,6.20
2023-02-07T22:03:22.918Z,6.20
2023-02-07T22:05:54.884Z,6.15
2023-02-07T22:08:26.899Z,6.11
2023-02-07T22:11:09.996Z,6.03
2023-02-07T22:13:45.210Z,6.03
2023-02-07T22:16:19.821Z,5.92
2023-02-07T22:18:54.052Z,6.01
2023-02-07T22:21:30.053Z,5.98
2023-02-07T22:24:04.228Z,6.01
2023-02-07T22:26:36.250Z,5.98
2023-02-07T22:29:09.339Z,6.00
2023-02-07T22:31:42.664Z,5.99
2023-02-07T22:34:15.667Z,5.98
2023-02-07T22:36:47.749Z,5.95
2023-02-07T22:39:20.207Z,5.87
2023-02-07T22:41:56.675Z,5.90
2023-02-07T22:44:28.701Z,5.87
2023-02-07T22:47:00.653Z,5.79
2023-02-07T22:49:32.723Z,5.82
2023-02-07T22:52:04.826Z,5.81
2023-02-07T22:54:36.764Z,5.80
2023-02-07T22:57:12.334Z,5.81
2023-02-07T22:59:44.289Z,5.78
2023-02-07T23:02:16.232Z,5.80
2023-02-07T23:04:48.229Z,5.77
2023-02-07T23:07:20.600Z,5.75
2023-02-07T23:09:54.649Z,5.74
2023-02-07T23:12:26.731Z,5.73
2023-02-07T23:14:59.588Z,5.69
2023-02-07T23:17:31.655Z,5.60
2023-02-07T23:20:04.617Z,5.61
2023-02-07T23:22:38.842Z,5.60
2023-02-07T23:25:16.054Z,5.58
2023-02-07T23:27:48.337Z,5.56
2023-02-07T23:30:20.380Z,5.54
2023-02-07T23:32:52.308Z,5.54
2023-02-07T23:35:24.247Z,5.53
2023-02-07T23:37:56.170Z,5.51
2023-02-07T23:40:28.948Z,5.44
2023-02-07T23:43:00.958Z,5.48
2023-02-07T23:45:32.873Z,5.44
2023-02-07T23:48:06.980Z,5.41
2023-02-07T23:50:39.351Z,5.43
2023-02-07T23:53:11.614Z,5.41
2023-02-07T23:55:43.722Z,5.40
2023-02-07T23:58:16.698Z,5.36
